Time;durP1;ratioP1;P1;durP2;ratioP2;P2;SDS_P1;SDS_P2;PMS_P1;PMS_P2;Temp;Humidity;BMP_temperature;BMP_pressure;BME280_temperature;BME280_humidity;BME280_pressure;Samples;Min_cycle;Max_cycle;Signal;HPM_P1;HPM_P2
2021/05/25 00:08:04;;;;;;;7.73;3.13;;;;;;;15.80;81.03;100186.08;712510;1202;114383;-77
2021/05/25 00:23:24;;;;;;;4.40;2.40;;;;;;;15.68;82.03;100153.90;712894;1205;115226;-76
2021/05/25 00:38:45;;;;;;;5.83;3.03;;;;;;;15.52;83.77;100151.30;712880;1177;114054;-75
2021/05/25 00:54:06;;;;;;;3.00;2.60;;;;;;;15.45;85.24;100124.73;712626;1202;114131;-76
2021/05/25 01:09:29;;;;;;;4.07;2.67;;;;;;;15.34;86.76;100103.97;712526;1203;113953;-76
2021/05/25 01:24:50;;;;;;;3.85;3.08;;;;;;;15.14;89.39;100096.44;712679;1202;115240;-76
2021/05/25 01:40:11;;;;;;;4.97;2.97;;;;;;;14.96;91.33;100067.58;712548;1202;115688;-75
2021/05/25 01:55:36;;;;;;;5.45;2.80;;;;;;;14.77;94.44;100058.23;712815;1204;115417;-77
2021/05/25 02:11:02;;;;;;;3.98;3.03;;;;;;;14.57;96.55;100073.55;712827;1202;115522;-76
2021/05/25 02:26:22;;;;;;;6.85;3.05;;;;;;;14.37;99.46;100052.80;712540;1202;114673;-76
2021/05/25 02:41:42;;;;;;;5.43;3.30;;;;;;;14.34;100.00;100024.09;712677;1202;115235;-77
2021/05/25 02:57:03;;;;;;;4.33;3.20;;;;;;;14.24;100.00;100012.88;712387;1206;115230;-76
2021/05/25 03:12:23;;;;;;;7.50;3.45;;;;;;;14.11;100.00;99994.94;712484;1202;115480;-76
2021/05/25 03:27:45;;;;;;;5.45;3.00;;;;;;;14.00;100.00;99990.80;712392;1202;115153;-75
2021/05/25 03:43:06;;;;;;;4.70;3.20;;;;;;;13.86;100.00;99989.65;712629;1203;114485;-75
2021/05/25 04:14:06;;;;;;;5.37;4.10;;;;;;;13.94;100.00;99967.73;712630;1206;115192;-75
2021/05/25 04:29:27;;;;;;;5.53;3.95;;;;;;;13.78;100.00;99958.83;712828;1206;115431;-76
2021/05/25 04:44:52;;;;;;;6.10;4.03;;;;;;;13.48;100.00;99952.38;712797;1202;113808;-75
2021/05/25 05:15:38;;;;;;;6.08;4.90;;;;;;;13.34;100.00;99951.14;713991;1169;116715;-72
2021/05/25 05:30:58;;;;;;;6.80;5.60;;;;;;;13.31;100.00;99954.11;712810;1202;115160;-72
2021/05/25 05:46:19;;;;;;;7.00;5.28;;;;;;;13.51;100.00;99946.77;712792;1203;113924;-73
2021/05/25 06:01:40;;;;;;;8.95;6.68;;;;;;;13.55;100.00;99916.46;712470;1206;114645;-73
2021/05/25 06:17:01;;;;;;;6.67;5.47;;;;;;;13.58;100.00;99916.16;712765;1203;114450;-71
2021/05/25 06:32:21;;;;;;;7.25;5.48;;;;;;;13.61;100.00;99904.47;712937;1205;115491;-72
2021/05/25 06:47:42;;;;;;;7.10;5.00;;;;;;;13.70;100.00;99885.02;713160;1202;114028;-71
2021/05/25 07:03:03;;;;;;;4.23;3.40;;;;;;;13.84;100.00;99877.44;712876;1202;114726;-71
2021/05/25 07:18:24;;;;;;;8.57;5.07;;;;;;;13.86;100.00;99883.38;712992;1203;114948;-91
2021/05/25 07:33:47;;;;;;;19.20;12.37;;;;;;;13.90;100.00;99876.77;713048;1203;113955;-90
2021/05/25 07:49:08;;;;;;;11.95;8.15;;;;;;;13.92;100.00;99872.14;718074;1202;114453;-89
2021/05/25 08:04:42;;;;;;;15.80;6.63;;;;;;;13.96;100.00;99881.36;717709;1202;114204;-88
2021/05/25 08:20:19;;;;;;;5.45;3.85;;;;;;;13.95;100.00;99861.28;713238;1202;114078;-88
2021/05/25 08:36:00;;;;;;;8.98;5.95;;;;;;;14.26;100.00;99844.70;712905;1202;114976;-88
2021/05/25 08:51:21;;;;;;;8.80;6.25;;;;;;;14.91;100.00;99848.91;712949;1181;113997;-88
2021/05/25 09:06:44;;;;;;;7.35;6.35;;;;;;;15.28;100.00;99833.28;712800;1202;115339;-87
2021/05/25 09:22:26;;;;;;;8.55;5.30;;;;;;;15.59;100.00;99835.03;712475;1205;114821;-87
2021/05/25 09:37:49;;;;;;;7.40;5.33;;;;;;;15.26;100.00;99851.97;712773;1202;114662;-86
2021/05/25 09:53:12;;;;;;;5.43;4.87;;;;;;;15.51;100.00;99865.00;712287;1206;114104;-84
2021/05/25 10:08:33;;;;;;;8.03;4.78;;;;;;;15.29;100.00;99871.94;712335;1205;114810;-75
2021/05/25 10:23:55;;;;;;;7.78;5.80;;;;;;;15.44;100.00;99875.46;712577;1202;115224;-83
2021/05/25 10:39:36;;;;;;;5.27;4.47;;;;;;;14.97;100.00;99894.92;712345;1202;114533;-77
2021/05/25 10:54:58;;;;;;;9.13;6.00;;;;;;;15.11;100.00;99902.11;714606;1206;114084;-84
2021/05/25 11:10:27;;;;;;;6.10;4.60;;;;;;;15.01;100.00;99903.33;713031;1202;114341;-84
2021/05/25 11:25:47;;;;;;;12.80;8.50;;;;;;;14.92;100.00;99905.98;713177;1205;114202;-84
2021/05/25 11:41:15;;;;;;;9.47;7.23;;;;;;;16.14;100.00;99902.64;712503;1203;114097;-84
2021/05/25 11:56:37;;;;;;;8.10;6.33;;;;;;;16.69;100.00;99910.30;712473;1206;114623;-85
2021/05/25 12:12:08;;;;;;;8.65;6.35;;;;;;;17.23;100.00;99895.86;712444;1205;115026;-79
2021/05/25 12:27:29;;;;;;;7.48;5.50;;;;;;;17.80;100.00;99904.77;712702;1202;113540;-79
2021/05/25 12:42:49;;;;;;;8.27;5.53;;;;;;;18.94;100.00;99920.59;712659;1202;113400;-79
2021/05/25 12:58:10;;;;;;;9.08;6.70;;;;;;;17.66;100.00;99934.84;712374;1203;114387;-79
2021/05/25 13:13:38;;;;;;;4.30;3.35;;;;;;;16.02;100.00;100001.14;712334;1206;114255;-83
2021/05/25 13:29:02;;;;;;;3.45;2.93;;;;;;;14.56;100.00;99996.19;712454;1202;115385;-81
2021/05/25 13:44:22;;;;;;;5.33;3.80;;;;;;;14.39;100.00;100010.41;712453;1203;115073;-81
2021/05/25 14:15:04;;;;;;;12.93;9.23;;;;;;;15.15;100.00;100013.55;712484;1202;114749;-79
2021/05/25 14:30:24;;;;;;;16.30;10.58;;;;;;;16.85;100.00;100011.77;712524;1203;115982;-81
2021/05/25 14:45:46;;;;;;;82.77;61.00;;;;;;;16.95;100.00;100026.41;712447;1202;116127;-81
2021/05/25 15:01:09;;;;;;;114.93;67.58;;;;;;;16.67;100.00;100023.55;712667;1206;114391;-81
2021/05/25 15:16:29;;;;;;;95.00;45.40;;;;;;;17.02;100.00;100015.89;712540;1206;115917;-81
2021/05/25 15:31:50;;;;;;;14.80;9.60;;;;;;;16.19;100.00;100042.33;712258;1202;115630;-81
2021/05/25 15:47:11;;;;;;;9.63;6.43;;;;;;;15.86;100.00;100042.58;712512;1202;114319;-81
2021/05/25 16:02:31;;;;;;;7.67;5.67;;;;;;;15.72;100.00;100049.42;712694;1202;114608;-76
2021/05/25 16:17:52;;;;;;;7.63;4.18;;;;;;;15.34;100.00;100065.14;712586;1206;114574;-81
2021/05/25 16:33:12;;;;;;;40.95;29.98;;;;;;;14.72;100.00;100065.83;712554;1206;114255;-81
2021/05/25 16:48:33;;;;;;;12.03;7.73;;;;;;;14.42;100.00;100079.49;712641;1202;115764;-83
2021/05/25 17:19:20;;;;;;;11.80;4.60;;;;;;;14.33;100.00;100071.76;712486;1203;114152;-82
2021/05/25 17:34:40;;;;;;;5.00;3.13;;;;;;;14.05;100.00;100093.17;712585;1202;115061;-82
2021/05/25 17:50:01;;;;;;;8.40;4.85;;;;;;;13.95;100.00;100088.05;712720;1206;115406;-82
2021/05/25 18:05:21;;;;;;;9.53;4.03;;;;;;;13.88;100.00;100076.48;712598;1183;114194;-80
2021/05/25 18:20:45;;;;;;;5.17;3.63;;;;;;;13.69;100.00;100098.70;712711;1202;114981;-81
2021/05/25 18:36:14;;;;;;;6.53;3.87;;;;;;;13.64;100.00;100114.98;712753;1202;115653;-82
2021/05/25 18:51:35;;;;;;;6.65;4.13;;;;;;;13.52;100.00;100117.07;712821;1182;114012;-80
2021/05/25 19:06:57;;;;;;;9.40;5.37;;;;;;;13.30;100.00;100110.52;712807;1202;114145;-81
2021/05/25 19:37:44;;;;;;;9.05;6.60;;;;;;;12.92;100.00;100116.08;712638;1202;114175;-81
2021/05/25 19:53:05;;;;;;;10.45;6.63;;;;;;;12.77;100.00;100139.48;712825;1183;115581;-80
2021/05/25 20:08:25;;;;;;;11.10;6.70;;;;;;;12.60;100.00;100153.50;713730;1202;114242;-79
2021/05/25 20:23:46;;;;;;;11.03;6.67;;;;;;;12.51;100.00;100149.98;713438;1205;114994;-80
2021/05/25 20:39:13;;;;;;;10.30;6.37;;;;;;;12.53;100.00;100131.41;713219;1206;114417;-78
2021/05/25 20:54:33;;;;;;;11.90;8.00;;;;;;;12.44;100.00;100133.13;713336;1203;115240;-79
2021/05/25 21:09:53;;;;;;;10.50;6.48;;;;;;;12.38;100.00;100149.52;713223;1202;115889;-79
2021/05/25 21:25:16;;;;;;;12.48;7.80;;;;;;;12.39;100.00;100141.50;714101;1202;115670;-79
2021/05/25 21:40:37;;;;;;;14.47;8.30;;;;;;;12.11;100.00;100141.53;712593;1202;115093;-81
2021/05/25 21:55:57;;;;;;;8.73;5.97;;;;;;;12.00;100.00;100133.88;712434;1202;115547;-75
2021/05/25 22:11:18;;;;;;;12.13;6.53;;;;;;;11.91;100.00;100138.17;712540;1178;114057;-76
2021/05/25 22:26:39;;;;;;;11.80;6.83;;;;;;;11.81;100.00;100138.23;712720;1205;114436;-79
2021/05/25 22:41:59;;;;;;;11.55;6.10;;;;;;;11.64;100.00;100118.01;712372;1203;114877;-76
2021/05/25 22:57:20;;;;;;;9.40;6.00;;;;;;;11.60;100.00;100119.25;712712;1202;114908;-79
2021/05/25 23:12:41;;;;;;;9.43;5.80;;;;;;;11.51;100.00;100115.71;712817;1202;115426;-75
2021/05/25 23:28:01;;;;;;;10.57;6.67;;;;;;;11.45;100.00;100121.53;712601;1206;115075;-75
2021/05/25 23:43:22;;;;;;;14.60;7.20;;;;;;;11.34;100.00;100117.30;712258;1202;115725;-75
2021/05/25 23:58:42;;;;;;;8.65;5.48;;;;;;;11.28;100.00;100117.87;712326;1202;115760;-75
